createdAt,value
2023-10-25T00:01:57.224Z,96759.66
2023-10-25T00:04:26.301Z,96766.53
2023-10-25T00:06:54.184Z,96764.69
2023-10-25T00:09:21.929Z,96758.34
2023-10-25T00:11:49.576Z,96756.03
2023-10-25T00:14:17.092Z,96752.97
2023-10-25T00:16:44.702Z,96747.59
2023-10-25T00:19:12.924Z,96758.25
2023-10-25T00:21:42.012Z,96758.56
2023-10-25T00:24:10.073Z,96759.19
2023-10-25T00:26:37.769Z,96754.03
2023-10-25T00:29:05.521Z,96755.81
2023-10-25T00:31:33.272Z,96764.91
2023-10-25T00:34:00.863Z,96764.91
2023-10-25T00:36:28.461Z,96763.19
2023-10-25T00:38:57.369Z,96761.78
2023-10-25T00:41:25.064Z,96762.72
2023-10-25T00:43:52.577Z,96762.72
2023-10-25T00:46:23.641Z,96762.72
2023-10-25T00:48:54.711Z,96765.28
2023-10-25T00:51:24.274Z,96767.72
2023-10-25T00:53:53.702Z,96768.78
2023-10-25T00:56:26.553Z,96762.59
2023-10-25T00:58:56.096Z,96759.91
2023-10-25T01:01:25.363Z,96757.66
2023-10-25T01:03:54.053Z,96751.47
2023-10-25T01:06:22.195Z,96750.53
2023-10-25T01:08:51.273Z,96758.81
2023-10-25T01:11:18.870Z,96756.78
2023-10-25T01:13:47.774Z,96748.38
2023-10-25T01:16:15.744Z,96732.41
2023-10-25T01:18:43.479Z,96734.72
2023-10-25T01:21:11.236Z,96730.50
2023-10-25T01:23:40.192Z,96733.25
2023-10-25T01:26:07.744Z,96733.19
2023-10-25T01:28:35.311Z,96735.50
2023-10-25T01:31:03.740Z,96739.06
2023-10-25T01:33:31.273Z,96739.69
2023-10-25T01:35:58.810Z,96732.44
2023-10-25T01:38:26.385Z,96736.53
2023-10-25T01:40:55.364Z,96726.09
2023-10-25T01:43:22.972Z,96733.50
2023-10-25T01:45:51.684Z,96728.13
2023-10-25T01:48:19.352Z,96719.72
2023-10-25T01:50:46.966Z,96725.97
2023-10-25T01:53:14.511Z,96719.34
2023-10-25T01:55:42.471Z,96714.75
2023-10-25T01:58:11.395Z,96717.44
2023-10-25T02:00:40.565Z,96721.41
2023-10-25T02:03:08.281Z,96715.91
2023-10-25T02:05:35.888Z,96718.72
2023-10-25T02:08:04.225Z,96712.38
2023-10-25T02:10:31.836Z,96714.03
2023-10-25T02:12:59.412Z,96719.66
2023-10-25T02:15:29.847Z,96717.16
2023-10-25T02:17:57.420Z,96711.59
2023-10-25T02:20:25.754Z,96719.47
2023-10-25T02:22:53.338Z,96713.28
2023-10-25T02:25:20.914Z,96719.66
2023-10-25T02:27:48.542Z,96718.63
2023-10-25T02:30:16.125Z,96723.38
2023-10-25T02:32:45.110Z,96726.06
2023-10-25T02:35:12.714Z,96732.09
2023-10-25T02:37:40.302Z,96734.56
2023-10-25T02:40:09.100Z,96727.56
2023-10-25T02:42:36.680Z,96729.28
2023-10-25T02:45:04.780Z,96733.53
2023-10-25T02:47:32.448Z,96727.97
2023-10-25T02:50:01.483Z,96728.00
2023-10-25T02:52:28.989Z,96718.78
2023-10-25T02:54:57.066Z,96729.66
2023-10-25T02:57:24.686Z,96729.44
2023-10-25T02:59:53.216Z,96724.75
2023-10-25T03:02:20.628Z,96719.72
2023-10-25T03:04:48.236Z,96723.03
2023-10-25T03:07:17.197Z,96719.16
2023-10-25T03:09:45.017Z,96728.31
2023-10-25T03:12:12.898Z,96721.66
2023-10-25T03:14:40.420Z,96709.50
2023-10-25T03:17:07.984Z,96707.16
2023-10-25T03:19:35.604Z,96701.41
2023-10-25T03:22:04.196Z,96712.97
2023-10-25T03:24:33.031Z,96710.50
2023-10-25T03:27:00.906Z,96713.19
2023-10-25T03:29:28.438Z,96703.00
2023-10-25T03:31:59.279Z,96719.31
2023-10-25T03:34:27.046Z,96716.03
2023-10-25T03:36:54.696Z,96713.06
2023-10-25T03:39:24.378Z,96714.88
2023-10-25T03:41:53.264Z,96720.91
2023-10-25T03:44:20.992Z,96716.06
2023-10-25T03:46:48.709Z,96716.13
2023-10-25T03:49:16.357Z,96699.00
2023-10-25T03:51:43.956Z,96697.22
2023-10-25T03:54:11.479Z,96689.16
2023-10-25T03:56:38.992Z,96680.09
2023-10-25T03:59:08.741Z,96689.56
2023-10-25T04:01:36.457Z,96681.28
2023-10-25T04:04:04.215Z,96675.19
2023-10-25T04:06:31.812Z,96672.75
2023-10-25T04:08:59.340Z,96687.41
2023-10-25T04:11:26.964Z,96681.63
2023-10-25T04:13:54.470Z,96668.63
2023-10-25T04:16:23.523Z,96675.28
2023-10-25T04:18:51.097Z,96671.59
2023-10-25T04:21:18.679Z,96673.47
2023-10-25T04:23:46.196Z,96667.72
2023-10-25T04:26:16.338Z,96682.47
2023-10-25T04:28:45.276Z,96687.00
2023-10-25T04:31:13.796Z,96684.72
2023-10-25T04:33:43.014Z,96679.72
2023-10-25T04:36:10.746Z,96674.56
2023-10-25T04:38:38.309Z,96679.56
2023-10-25T04:41:05.944Z,96678.97
2023-10-25T04:43:33.688Z,96673.38
2023-10-25T04:46:02.014Z,96670.69
2023-10-25T04:48:29.628Z,96664.13
2023-10-25T04:50:58.507Z,96654.84
2023-10-25T04:53:26.156Z,96649.91
2023-10-25T04:55:54.150Z,96644.34
2023-10-25T04:58:22.246Z,96653.03
2023-10-25T05:00:49.901Z,96656.56
2023-10-25T05:03:17.612Z,96650.75
2023-10-25T05:05:45.298Z,96640.63
2023-10-25T05:08:15.012Z,96642.84
2023-10-25T05:10:43.080Z,96641.50
2023-10-25T05:13:11.272Z,96631.84
2023-10-25T05:15:39.619Z,96634.53
2023-10-25T05:18:08.046Z,96626.72
2023-10-25T05:20:36.354Z,96629.50
2023-10-25T05:23:05.410Z,96627.44
2023-10-25T05:25:35.234Z,96625.81
2023-10-25T05:28:03.326Z,96629.19
2023-10-25T05:30:31.372Z,96626.78
2023-10-25T05:33:03.028Z,96628.63
2023-10-25T05:35:31.246Z,96628.81
2023-10-25T05:38:00.101Z,96625.03
2023-10-25T05:40:28.824Z,96619.84
2023-10-25T05:42:59.830Z,96616.06
2023-10-25T05:45:27.384Z,96607.59
2023-10-25T05:47:55.997Z,96609.22
2023-10-25T05:50:23.667Z,96609.66
2023-10-25T05:52:51.582Z,96621.06
2023-10-25T05:55:19.621Z,96610.22
2023-10-25T05:57:47.975Z,96616.25
2023-10-25T06:00:18.152Z,96630.50
2023-10-25T06:02:46.370Z,96625.31
2023-10-25T06:05:15.381Z,96634.16
2023-10-25T06:07:43.806Z,96627.47
2023-10-25T06:10:12.547Z,96628.31
2023-10-25T06:12:42.047Z,96632.69
2023-10-25T06:15:11.224Z,96636.84
2023-10-25T06:17:40.520Z,96647.31
2023-10-25T06:20:09.232Z,96639.81
2023-10-25T06:22:36.773Z,96644.84
2023-10-25T06:25:06.377Z,96639.38
2023-10-25T06:27:34.118Z,96643.19
2023-10-25T06:30:01.758Z,96648.28
2023-10-25T06:32:29.392Z,96655.00
2023-10-25T06:34:58.307Z,96649.81
2023-10-25T06:37:26.650Z,96647.94
2023-10-25T06:39:54.854Z,96655.44
2023-10-25T06:42:22.921Z,96657.56
2023-10-25T06:44:52.087Z,96654.34
2023-10-25T06:47:20.210Z,96653.84
2023-10-25T06:49:48.456Z,96656.84
2023-10-25T06:52:18.100Z,96658.00
2023-10-25T06:54:46.436Z,96651.66
2023-10-25T06:57:14.835Z,96642.75
2023-10-25T06:59:43.023Z,96634.66
2023-10-25T07:02:29.526Z,96631.34
2023-10-25T07:05:02.918Z,96632.13
2023-10-25T07:07:35.004Z,96634.03
2023-10-25T07:10:03.510Z,96637.59
2023-10-25T07:12:33.045Z,96633.47
2023-10-25T07:15:00.556Z,96637.69
2023-10-25T07:17:29.491Z,96635.97
2023-10-25T07:19:59.548Z,96632.97
2023-10-25T07:22:27.620Z,96633.94
2023-10-25T07:24:56.825Z,96626.00
2023-10-25T07:27:24.954Z,96626.13
2023-10-25T07:29:52.684Z,96622.75
2023-10-25T07:32:20.333Z,96623.13
2023-10-25T07:34:47.837Z,96626.22
2023-10-25T07:37:16.180Z,96625.53
2023-10-25T07:39:43.754Z,96627.44
2023-10-25T07:42:12.707Z,96625.72
2023-10-25T07:44:40.393Z,96616.56
2023-10-25T07:47:08.194Z,96615.91
2023-10-25T07:49:36.652Z,96615.09
2023-10-25T07:52:04.903Z,96609.44
2023-10-25T07:54:32.455Z,96609.34
2023-10-25T07:59:31.928Z,96608.16
2023-10-25T08:01:59.563Z,96608.44
2023-10-25T08:04:27.426Z,96609.34
2023-10-25T08:06:55.211Z,96603.97
2023-10-25T08:09:22.967Z,96599.38
2023-10-25T08:11:50.774Z,96587.72
2023-10-25T08:14:18.479Z,96589.25
2023-10-25T08:16:47.832Z,96580.09
2023-10-25T08:19:16.244Z,96583.88
2023-10-25T08:21:43.909Z,96589.63
2023-10-25T08:24:11.518Z,96589.38
2023-10-25T08:26:40.970Z,96586.44
2023-10-25T08:29:09.498Z,96592.25
2023-10-25T08:31:37.398Z,96589.38
2023-10-25T08:34:06.956Z,96583.94
2023-10-25T08:36:35.305Z,96581.38
2023-10-25T08:39:03.505Z,96582.50
2023-10-25T08:41:31.735Z,96584.13
2023-10-25T08:44:00.706Z,96578.19
2023-10-25T08:46:30.219Z,96579.38
2023-10-25T08:48:58.502Z,96574.31
2023-10-25T08:51:28.020Z,96575.19
2023-10-25T08:54:00.808Z,96579.22
2023-10-25T08:56:28.581Z,96564.41
2023-10-25T08:58:59.934Z,96565.47
2023-10-25T09:01:27.517Z,96554.28
2023-10-25T09:03:55.264Z,96554.06
2023-10-25T09:06:27.959Z,96543.72
2023-10-25T09:09:00.426Z,96538.19
2023-10-25T09:11:39.486Z,96543.38
2023-10-25T09:14:07.283Z,96544.03
2023-10-25T09:16:35.719Z,96543.00
2023-10-25T09:19:04.750Z,96546.09
2023-10-25T09:21:33.923Z,96534.94
2023-10-25T09:24:03.910Z,96544.53
2023-10-25T09:26:36.131Z,96537.69
2023-10-25T09:29:05.003Z,96536.88
2023-10-25T09:31:35.091Z,96539.09
2023-10-25T09:34:09.223Z,96532.75
2023-10-25T09:36:38.831Z,96531.94
2023-10-25T09:39:06.798Z,96535.03
2023-10-25T09:41:39.589Z,96533.84
2023-10-25T09:44:19.969Z,96522.06
2023-10-25T09:46:49.270Z,96518.53
2023-10-25T09:49:17.954Z,96514.41
2023-10-25T09:51:56.072Z,96508.13
2023-10-25T09:54:30.516Z,96508.94
2023-10-25T09:57:00.322Z,96497.41
2023-10-25T09:59:30.009Z,96494.00
2023-10-25T10:01:58.264Z,96495.06
2023-10-25T10:04:35.742Z,96487.69
2023-10-25T10:07:15.261Z,96473.59
2023-10-25T10:09:52.184Z,96469.50
2023-10-25T10:12:20.066Z,96462.75
2023-10-25T10:14:47.645Z,96464.41
2023-10-25T10:17:17.592Z,96464.75
2023-10-25T10:19:47.681Z,96450.09
2023-10-25T10:22:17.821Z,96447.09
2023-10-25T10:24:47.381Z,96447.91
2023-10-25T10:27:16.340Z,96451.94
2023-10-25T10:29:46.170Z,96439.81
2023-10-25T10:32:14.229Z,96433.38
2023-10-25T10:34:46.483Z,96431.31
2023-10-25T10:37:17.241Z,96419.63
2023-10-25T10:40:17.729Z,96423.75
2023-10-25T10:42:45.497Z,96422.91
2023-10-25T10:45:16.034Z,96411.59
2023-10-25T10:47:45.538Z,96394.88
2023-10-25T10:50:15.153Z,96383.59
2023-10-25T10:52:45.727Z,96383.75
2023-10-25T10:55:15.648Z,96372.41
2023-10-25T10:57:52.692Z,96368.13
2023-10-25T11:00:31.226Z,96370.47
2023-10-25T11:03:02.842Z,96359.38
2023-10-25T11:05:32.682Z,96352.59
2023-10-25T11:08:01.584Z,96359.06
2023-10-25T11:10:29.234Z,96352.53
2023-10-25T11:13:02.136Z,96358.38
2023-10-25T11:15:31.187Z,96348.91
2023-10-25T11:17:59.173Z,96345.28
2023-10-25T11:20:26.854Z,96341.19
2023-10-25T11:22:54.449Z,96341.84
2023-10-25T11:25:23.615Z,96340.59
2023-10-25T11:27:51.231Z,96335.22
2023-10-25T11:30:20.097Z,96336.97
2023-10-25T11:32:49.805Z,96338.75
2023-10-25T11:35:24.717Z,96330.09
2023-10-25T11:37:53.922Z,96333.94
2023-10-25T11:40:35.894Z,96319.22
2023-10-25T11:43:04.553Z,96317.84
2023-10-25T11:45:32.216Z,96313.16
2023-10-25T11:48:00.397Z,96312.13
2023-10-25T11:50:29.052Z,96306.94
2023-10-25T11:52:56.443Z,96309.31
2023-10-25T11:55:25.352Z,96305.34
2023-10-25T11:57:52.924Z,96300.53
2023-10-25T12:00:21.041Z,96293.91
2023-10-25T12:02:48.682Z,96284.63
2023-10-25T12:05:16.291Z,96285.19
2023-10-25T12:07:44.586Z,96278.44
2023-10-25T12:10:12.180Z,96273.19
2023-10-25T12:12:41.111Z,96265.03
2023-10-25T12:15:09.805Z,96255.09
2023-10-25T12:17:37.478Z,96261.94
2023-10-25T12:20:22.482Z,96252.91
2023-10-25T12:22:53.050Z,96237.06
2023-10-25T12:25:20.941Z,96234.31
2023-10-25T12:27:50.871Z,96239.59
2023-10-25T12:30:18.503Z,96236.31
2023-10-25T12:32:46.310Z,96235.03
2023-10-25T12:35:14.035Z,96231.63
2023-10-25T12:37:41.692Z,96231.19
2023-10-25T12:40:10.607Z,96221.81
2023-10-25T12:42:38.136Z,96217.03
2023-10-25T12:45:08.662Z,96213.63
2023-10-25T12:47:36.396Z,96218.91
2023-10-25T12:50:05.736Z,96213.22
2023-10-25T12:52:33.337Z,96200.59
2023-10-25T12:55:01.546Z,96198.13
2023-10-25T12:57:29.158Z,96198.97
2023-10-25T12:59:56.778Z,96198.38
2023-10-25T13:02:25.780Z,96190.09
2023-10-25T13:04:53.335Z,96177.16
2023-10-25T13:07:21.169Z,96169.41
2023-10-25T13:09:48.791Z,96156.84
2023-10-25T13:12:16.388Z,96152.47
2023-10-25T13:14:44.199Z,96147.44
2023-10-25T13:17:20.125Z,96140.75
2023-10-25T13:19:50.356Z,96130.56
2023-10-25T13:22:17.917Z,96124.63
2023-10-25T13:24:45.544Z,96123.81
2023-10-25T13:27:13.185Z,96115.75
2023-10-25T13:29:40.825Z,96110.31
2023-10-25T13:32:09.377Z,96094.25
2023-10-25T13:34:36.793Z,96102.06
2023-10-25T13:37:05.778Z,96093.78
2023-10-25T13:39:33.397Z,96083.03
2023-10-25T13:42:00.979Z,96085.41
2023-10-25T13:44:28.732Z,96073.56
2023-10-25T13:46:56.888Z,96072.28
2023-10-25T13:49:24.409Z,96072.59
2023-10-25T13:51:51.962Z,96073.41
2023-10-25T13:54:22.061Z,96074.69
2023-10-25T13:56:49.739Z,96065.91
2023-10-25T13:59:17.547Z,96063.22
2023-10-25T14:01:45.068Z,96057.28
2023-10-25T14:04:15.959Z,96046.22
2023-10-25T14:06:44.592Z,96056.69
2023-10-25T14:09:12.284Z,96054.59
2023-10-25T14:11:41.374Z,96056.38
2023-10-25T14:14:09.204Z,96058.34
2023-10-25T14:16:36.766Z,96055.66
2023-10-25T14:19:04.385Z,96063.72
2023-10-25T14:21:32.200Z,96052.69
2023-10-25T14:24:00.031Z,96041.16
2023-10-25T14:26:27.641Z,96045.72
2023-10-25T14:28:56.533Z,96042.72
2023-10-25T14:31:24.087Z,96039.94
2023-10-25T14:33:51.660Z,96032.72
2023-10-25T14:36:19.981Z,96043.03
2023-10-25T14:38:48.532Z,96033.56
2023-10-25T14:41:16.709Z,96028.69
2023-10-25T14:43:44.257Z,96027.06
2023-10-25T14:46:18.837Z,96015.47
2023-10-25T14:48:46.825Z,96013.00
2023-10-25T14:51:15.814Z,96014.06
2023-10-25T14:53:43.552Z,96005.75
2023-10-25T14:56:11.281Z,95984.25
2023-10-25T14:58:39.401Z,95991.81
2023-10-25T15:01:07.982Z,95981.59
2023-10-25T15:03:36.987Z,95979.22
2023-10-25T15:06:04.874Z,95982.16
2023-10-25T15:08:32.413Z,95979.72
2023-10-25T15:11:03.548Z,95973.84
2023-10-25T15:13:31.370Z,95968.53
2023-10-25T15:15:59.679Z,95958.03
2023-10-25T15:18:27.613Z,95958.53
2023-10-25T15:20:56.721Z,95952.84
2023-10-25T15:23:24.357Z,95943.72
2023-10-25T15:25:51.996Z,95951.72
2023-10-25T15:28:19.757Z,95946.91
2023-10-25T15:30:48.526Z,95945.28
2023-10-25T15:33:16.362Z,95950.09
2023-10-25T15:35:44.102Z,95942.34
2023-10-25T15:38:13.027Z,95944.19
2023-10-25T15:40:40.616Z,95937.84
2023-10-25T15:43:08.261Z,95939.97
2023-10-25T15:45:35.887Z,95935.66
2023-10-25T15:48:03.712Z,95929.28
2023-10-25T15:50:31.400Z,95930.84
2023-10-25T15:53:06.029Z,95930.84
2023-10-25T15:55:45.633Z,95925.16
2023-10-25T15:58:13.359Z,95925.75
2023-10-25T16:00:40.928Z,95919.94
2023-10-25T16:03:08.496Z,95916.13
2023-10-25T16:05:40.909Z,95910.97
2023-10-25T16:08:08.482Z,95900.00
2023-10-25T16:10:36.033Z,95903.13
2023-10-25T16:13:04.929Z,95898.06
2023-10-25T16:15:32.461Z,95893.75
2023-10-25T16:18:00.202Z,95892.41
2023-10-25T16:20:28.013Z,95885.75
2023-10-25T16:22:55.539Z,95885.78
2023-10-25T16:25:23.105Z,95882.59
2023-10-25T16:27:50.659Z,95875.34
2023-10-25T16:30:19.868Z,95874.03
2023-10-25T16:32:47.729Z,95869.97
2023-10-25T16:35:15.420Z,95872.91
2023-10-25T16:37:45.499Z,95871.06
2023-10-25T16:40:13.253Z,95869.47
2023-10-25T16:42:40.829Z,95866.78
2023-10-25T16:45:09.522Z,95861.41
2023-10-25T16:47:38.487Z,95856.03
2023-10-25T16:50:06.954Z,95856.84
2023-10-25T16:52:35.903Z,95862.22
2023-10-25T16:55:03.467Z,95864.59
2023-10-25T16:57:31.732Z,95865.69
2023-10-25T16:59:59.355Z,95872.47
2023-10-25T17:02:27.124Z,95864.66
2023-10-25T17:04:56.314Z,95862.22
2023-10-25T17:07:23.864Z,95864.91
2023-10-25T17:09:51.572Z,95864.66
2023-10-25T17:12:19.288Z,95863.34
2023-10-25T17:14:47.058Z,95864.41
2023-10-25T17:17:14.662Z,95872.16
2023-10-25T17:19:42.515Z,95861.16
2023-10-25T17:22:11.895Z,95869.19
2023-10-25T17:24:39.641Z,95865.47
2023-10-25T17:27:07.243Z,95882.41
2023-10-25T17:29:34.874Z,95879.47
2023-10-25T17:32:02.585Z,95864.09
2023-10-25T17:34:30.175Z,95865.47
2023-10-25T17:36:58.714Z,95859.53
2023-10-25T17:39:28.077Z,95859.03
2023-10-25T17:41:55.641Z,95852.25
2023-10-25T17:44:23.896Z,95844.47
2023-10-25T17:46:53.343Z,95836.34
2023-10-25T17:49:21.052Z,95839.84
2023-10-25T17:51:49.134Z,95854.34
2023-10-25T17:54:16.729Z,95855.75
2023-10-25T17:56:45.622Z,95863.81
2023-10-25T17:59:13.221Z,95851.94
2023-10-25T18:01:40.758Z,95842.25
2023-10-25T18:04:08.538Z,95844.41
2023-10-25T18:06:49.321Z,95836.63
2023-10-25T18:09:23.813Z,95842.78
2023-10-25T18:11:52.775Z,95838.19
2023-10-25T18:14:20.351Z,95843.06
2023-10-25T18:16:47.884Z,95838.19
2023-10-25T18:19:15.562Z,95856.19
2023-10-25T18:21:43.220Z,95852.41
2023-10-25T18:24:13.439Z,95853.22
2023-10-25T18:26:41.544Z,95858.38
2023-10-25T18:29:10.567Z,95846.25
2023-10-25T18:31:55.814Z,95851.63
2023-10-25T18:34:25.863Z,95849.19
2023-10-25T18:36:53.764Z,95839.50
2023-10-25T18:39:22.820Z,95841.94
2023-10-25T18:41:50.804Z,95841.94
2023-10-25T18:44:20.049Z,95845.97
2023-10-25T18:46:47.903Z,95839.78
2023-10-25T18:49:15.615Z,95833.59
2023-10-25T18:51:43.299Z,95832.50
2023-10-25T18:54:11.718Z,95827.69
2023-10-25T18:56:39.300Z,95828.19
2023-10-25T18:59:07.069Z,95829.81
2023-10-25T19:01:36.159Z,95819.88
2023-10-25T19:04:04.138Z,95819.31
2023-10-25T19:06:36.360Z,95812.91
2023-10-25T19:09:06.246Z,95805.31
2023-10-25T19:11:34.104Z,95797.84
2023-10-25T19:14:01.728Z,95797.53
2023-10-25T19:16:29.314Z,95785.69
2023-10-25T19:18:58.440Z,95764.72
2023-10-25T19:21:30.400Z,95763.91
2023-10-25T19:24:00.301Z,95778.44
2023-10-25T19:26:33.742Z,95771.97
2023-10-25T19:29:12.620Z,95778.66
2023-10-25T19:31:40.142Z,95773.25
2023-10-25T19:34:09.021Z,95775.91
2023-10-25T19:36:36.543Z,95778.91
2023-10-25T19:39:05.753Z,95786.66
2023-10-25T19:41:33.612Z,95784.78
2023-10-25T19:44:01.554Z,95787.47
2023-10-25T19:46:31.745Z,95798.75
2023-10-25T19:48:59.549Z,95792.03
2023-10-25T19:51:28.412Z,95807.84
2023-10-25T19:53:55.948Z,95803.00
2023-10-25T19:56:23.505Z,95798.44
2023-10-25T19:58:51.016Z,95803.50
2023-10-25T20:01:19.857Z,95794.94
2023-10-25T20:03:48.359Z,95801.38
2023-10-25T20:06:16.140Z,95796.25
2023-10-25T20:08:49.641Z,95797.31
2023-10-25T20:11:19.394Z,95794.88
2023-10-25T20:13:47.018Z,95798.38
2023-10-25T20:16:14.758Z,95792.47
2023-10-25T20:18:42.411Z,95795.69
2023-10-25T20:21:09.048Z,95798.00
2023-10-25T20:23:37.216Z,95791.06
2023-10-25T20:26:21.648Z,95792.75
2023-10-25T20:28:53.604Z,95786.81
2023-10-25T20:31:21.975Z,95786.44
2023-10-25T20:33:51.175Z,95783.75
2023-10-25T20:36:19.044Z,95787.88
2023-10-25T20:38:46.743Z,95788.97
2023-10-25T20:41:15.674Z,95797.81
2023-10-25T20:43:43.217Z,95798.63
2023-10-25T20:46:11.020Z,95795.16
2023-10-25T20:48:38.772Z,95800.50
2023-10-25T20:51:07.286Z,95797.00
2023-10-25T20:53:34.872Z,95796.50
2023-10-25T20:56:02.472Z,95799.44
2023-10-25T20:58:32.214Z,95797.56
2023-10-25T21:00:59.744Z,95796.00
2023-10-25T21:03:27.384Z,95795.25
2023-10-25T21:05:55.817Z,95786.94
2023-10-25T21:08:23.948Z,95797.09
2023-10-25T21:10:51.854Z,95793.09
2023-10-25T21:13:19.519Z,95794.72
2023-10-25T21:15:49.826Z,95796.91
2023-10-25T21:18:17.467Z,95799.59
2023-10-25T21:20:48.719Z,95809.78
2023-10-25T21:23:16.361Z,95804.41
2023-10-25T21:25:44.606Z,95803.91
2023-10-25T21:28:13.296Z,95807.09
2023-10-25T21:30:41.030Z,95812.47
2023-10-25T21:33:10.016Z,95813.00
2023-10-25T21:35:38.041Z,95816.50
2023-10-25T21:38:05.560Z,95820.84
2023-10-25T21:40:33.189Z,95819.19
2023-10-25T21:43:00.857Z,95818.66
2023-10-25T21:45:28.520Z,95820.78
2023-10-25T21:47:57.055Z,95834.19
2023-10-25T21:50:26.822Z,95839.25
2023-10-25T21:52:54.344Z,95833.06
2023-10-25T21:55:22.628Z,95843.81
2023-10-25T21:59:44.098Z,95849.97
2023-10-25T22:00:37.644Z,95861.78
2023-10-25T22:03:05.639Z,95851.53
2023-10-25T22:05:34.616Z,95854.22
2023-10-25T22:08:02.423Z,95854.47
2023-10-25T22:10:30.019Z,95858.28
2023-10-25T22:12:57.613Z,95862.75
2023-10-25T22:15:25.243Z,95863.06
2023-10-25T22:17:52.852Z,95871.63
2023-10-25T22:20:20.475Z,95877.81
2023-10-25T22:22:49.368Z,95875.63
2023-10-25T22:25:16.977Z,95880.13
2023-10-25T22:27:44.598Z,95890.94
2023-10-25T22:30:13.368Z,95897.28
2023-10-25T22:32:41.027Z,95900.09
2023-10-25T22:35:09.380Z,95903.09
2023-10-25T22:37:36.949Z,95898.78
2023-10-25T22:40:06.731Z,95904.97
2023-10-25T22:42:34.277Z,95907.97
2023-10-25T22:45:01.861Z,95905.13
2023-10-25T22:47:29.697Z,95921.00
2023-10-25T22:49:57.393Z,95914.50
2023-10-25T22:52:24.912Z,95921.75
2023-10-25T22:54:52.462Z,95913.03
2023-10-25T22:57:21.405Z,95917.19
2023-10-25T22:59:49.198Z,95914.31
2023-10-25T23:02:16.760Z,95921.75
2023-10-25T23:04:44.554Z,95921.81
2023-10-25T23:07:12.317Z,95925.13
2023-10-25T23:09:39.854Z,95921.50
2023-10-25T23:12:08.216Z,95928.13
2023-10-25T23:14:37.236Z,95924.44
2023-10-25T23:17:04.875Z,95927.34
2023-10-25T23:19:32.547Z,95930.19
2023-10-25T23:22:00.117Z,95925.47
2023-10-25T23:24:27.768Z,95923.88
2023-10-25T23:26:59.162Z,95932.78
2023-10-25T23:29:27.365Z,95931.16
2023-10-25T23:31:56.350Z,95927.69
2023-10-25T23:34:24.278Z,95928.31
2023-10-25T23:36:51.845Z,95929.94
2023-10-25T23:39:19.394Z,95925.38
2023-10-25T23:41:46.970Z,95920.19
2023-10-25T23:44:14.607Z,95917.00
2023-10-25T23:46:42.152Z,95921.31
2023-10-25T23:49:11.038Z,95913.34
2023-10-25T23:51:38.577Z,95920.50
2023-10-25T23:54:42.998Z,95918.63
2023-10-25T23:56:53.980Z,95927.75
2023-10-25T23:59:21.591Z,95928.06
